Buoy 32521

sailwx.info

Track history (hours):
 
Tides and Currents Weather Stations Pressure Air Temp Water Temp Dewpoint Dewpoint Depression Visibility Wind Speed Wind Dir Waves Ship Positions

Yue Yang Xi 32521

Last reported at 2017-Dec-17 06:30 UTC. Time now 2017-Dec-17 08:24 UTC.
Position S 16°42' E 168°46'.

Length 38 m.

Type: Fishing. MMSI: 412475823.

Water temperature 29.1 ° C

Date/timePositionNaut miles runAvg speedWind from/ knotsBaromVisibWave heightAir tempDewpointWater temp
2017-Dec-17 06:30S 16°42' E 168°46'0 0.0 29.1
2017-Dec-17 06:15S 16°42' E 168°46'2 1.3 29.1
2017-Dec-17 04:45S 16°40' E 168°46'0 0.0 29.1
2017-Dec-17 04:30S 16°40' E 168°46'4 2.5 29.0
2017-Dec-17 03:00S 16°38' E 168°49'0 0.0 28.9
2017-Dec-16 23:15S 16°38' E 168°49'0 0.0 29.0
2017-Dec-16 22:45S 16°38' E 168°49'311.7 29.0
2017-Dec-16 22:30S 16°36' E 168°52'1 1.1 29.0
2017-Dec-16 21:45S 16°37' E 168°51'1 1.1 29.0
2017-Dec-16 21:00S 16°36' E 168°52'310.4 29.0
2017-Dec-16 20:45S 16°35' E 168°54'0 0.0 29.0
2017-Dec-16 20:30S 16°35' E 168°54'0 0.0 29.0
2017-Dec-16 19:30S 16°35' E 168°54'1 1.2 29.0
2017-Dec-16 19:00S 16°35' E 168°53'2 9.5 29.0
2017-Dec-16 18:45S 16°34' E 168°56'0 0.0 29.0
2017-Dec-16 18:30S 16°34' E 168°56'2 3.2 29.0
2017-Dec-16 17:45S 16°34' E 168°58'7 4.6 29.1
2017-Dec-16 16:15S 16°33' E 169°05'0 0.0 29.1
2017-Dec-16 16:00S 16°33' E 169°05'0 0.0 29.1
2017-Dec-16 14:30S 16°33' E 169°05'0 0.0 29.1
2017-Dec-16 11:30S 16°33' E 169°05'0 0.0 29.1
2017-Dec-16 11:15S 16°33' E 169°05'1 0.8 29.1
2017-Dec-16 10:30S 16°33' E 169°06'0 0.0 29.1
2017-Dec-16 10:15S 16°33' E 169°06'0 0.0 29.1
2017-Dec-16 09:45S 16°33' E 169°06'1 2.3 29.1
2017-Dec-16 09:30S 16°33' E 169°07'1 1.7 29.1
2017-Dec-16 08:45S 16°32' E 169°08'0 0.0 29.1
2017-Dec-16 07:45S 16°32' E 169°08'1 4.6 29.1
2017-Dec-16 07:30S 16°32' E 169°09'0 0.0 29.1
2017-Dec-16 07:15S 16°32' E 169°09'0 0.0 29.1
2017-Dec-16 07:00S 16°32' E 169°09'1 0.9 29.1
2017-Dec-16 05:45S 16°32' E 169°10'1 4.6 29.1
2017-Dec-16 05:30S 16°32' E 169°11'0 0.0 29.1
2017-Dec-16 05:15S 16°32' E 169°11'0 0.0 29.1
2017-Dec-16 05:00S 16°32' E 169°11'2 7.3 29.2
2017-Dec-16 04:45S 16°33' E 169°13'0 0.0 29.2
2017-Dec-16 03:15S 16°33' E 169°13'0 0.0 29.1
2017-Dec-16 03:00S 16°33' E 169°13'4 0.9 29.2
2017-Dec-15 23:00S 16°32' E 169°17'1 4.6 29.0
2017-Dec-15 22:45S 16°32' E 169°18'1 1.5 29.0
2017-Dec-15 22:00S 16°32' E 169°17'1 4.6 28.9
2017-Dec-15 21:45S 16°32' E 169°18'0 0.0 28.9
2017-Dec-15 21:15S 16°32' E 169°18'0 0.0 28.9
2017-Dec-15 21:00S 16°32' E 169°18'1 5.2 28.9
2017-Dec-15 20:45S 16°33' E 169°19'0 0.0 28.9
2017-Dec-15 20:15S 16°33' E 169°19'1 2.3 28.9
2017-Dec-15 20:00S 16°33' E 169°20'0 0.0 28.9
2017-Dec-15 19:45S 16°33' E 169°20'0 0.0 28.9
2017-Dec-15 19:15S 16°33' E 169°20'0 0.0 28.9
2017-Dec-15 19:00S 16°33' E 169°20'2 2.4 28.9
2017-Dec-15 18:15S 16°34' E 169°22'0 0.0 28.9
2017-Dec-15 17:15S 16°34' E 169°22'1 1.7 28.9
2017-Dec-15 16:30S 16°33' E 169°23'0 0.0 28.9
2017-Dec-15 16:15S 16°33' E 169°23'0 0.0 28.9
2017-Dec-15 14:45S 16°33' E 169°23'310.4 28.9
2017-Dec-15 14:30S 16°34' E 169°25'0 0.0 28.9
2017-Dec-15 11:45S 16°34' E 169°25'1 0.8 28.9
2017-Dec-15 11:00S 16°34' E 169°26'0 0.0 28.9
2017-Dec-15 10:45S 16°34' E 169°26'0 0.0 28.9
2017-Dec-15 10:15S 16°34' E 169°26'0 0.0 28.9
2017-Dec-15 10:00S 16°34' E 169°26'1 2.3 28.9
2017-Dec-15 09:45S 16°34' E 169°25'0 0.0 28.9
2017-Dec-15 09:30S 16°34' E 169°25'0 0.0 28.9
2017-Dec-15 09:15S 16°34' E 169°25'1 5.2 28.9
2017-Dec-15 09:00S 16°35' E 169°26'1 0.6 28.9
2017-Dec-15 08:00S 16°35' E 169°26'1 2.3 28.9
2017-Dec-15 07:45S 16°35' E 169°25'1 3.3 28.9
2017-Dec-15 07:30S 16°35' E 169°26'0 0.0 28.9
2017-Dec-15 06:15S 16°35' E 169°26'0 0.0 28.9
2017-Dec-15 06:00S 16°35' E 169°26'0 0.0 28.9
2017-Dec-15 05:45S 16°35' E 169°26'1 2.3 28.9
2017-Dec-15 05:15S 16°35' E 169°27'0 0.0 28.9
2017-Dec-15 05:00S 16°35' E 169°27'1 0.6 28.9
2017-Dec-15 03:30S 16°35' E 169°28'414.6 28.9
2017-Dec-15 03:15S 16°34' E 169°31'1 0.2 28.9
2017-Dec-14 23:15S 16°34' E 169°32'1 0.4 28.8
2017-Dec-14 21:45S 16°34' E 169°32'0 0.0 28.8
2017-Dec-14 21:30S 16°34' E 169°32'0 0.0 28.8
2017-Dec-14 21:15S 16°34' E 169°32'1 2.3 28.8
2017-Dec-14 21:00S 16°34' E 169°32'0 0.0 28.8
2017-Dec-14 20:45S 16°34' E 169°32'0 0.0 28.8
2017-Dec-14 20:30S 16°34' E 169°32'1 1.3 28.8
2017-Dec-14 19:30S 16°33' E 169°34'0 0.0 28.8
2017-Dec-14 19:15S 16°33' E 169°34'1 4.6 28.8
2017-Dec-14 19:00S 16°33' E 169°35'0 0.0 28.8
2017-Dec-14 18:45S 16°33' E 169°35'1 1.2 28.8
2017-Dec-14 17:45S 16°33' E 169°34'1 2.3 28.8
2017-Dec-14 17:15S 16°33' E 169°35'0 0.0 28.8
2017-Dec-14 17:00S 16°33' E 169°35'1 2.6 28.8
2017-Dec-14 16:30S 16°32' E 169°36'0 0.0 28.8
2017-Dec-14 15:00S 16°32' E 169°36'1 2.4 28.8
2017-Dec-14 14:45S 16°33' E 169°36'2 0.7 28.8
2017-Dec-14 11:15S 16°32' E 169°38'1 2.4
2017-Dec-14 11:00S 16°33' E 169°38'1 1.2 28.7
2017-Dec-14 10:30S 16°32' E 169°38'1 3.3 28.7
2017-Dec-14 10:15S 16°33' E 169°39'2 2.3 28.7
2017-Dec-14 09:30S 16°33' E 169°41'0 0.0 28.7
2017-Dec-14 08:45S 16°33' E 169°41'0 0.0 28.7
2017-Dec-14 08:15S 16°33' E 169°41'0 0.0 28.8
2017-Dec-14 08:00S 16°33' E 169°41'1 0.6 28.8
2017-Dec-14 06:30S 16°34' E 169°41'0 0.0 28.8
2017-Dec-14 06:15S 16°34' E 169°41'2 1.7 28.8
2017-Dec-14 05:15S 16°32' E 169°43'0 0.0 28.8
2017-Dec-14 03:45S 16°32' E 169°43'0 0.0 28.8
2017-Dec-14 03:30S 16°32' E 169°43'2 0.5 28.9
2017-Dec-13 22:45S 16°31' E 169°44'0 0.0 28.8
2017-Dec-13 22:30S 16°31' E 169°44'2 4.8 28.8
2017-Dec-13 22:00S 16°30' E 169°47'2 9.5 28.8
2017-Dec-13 21:45S 16°31' E 169°44'2 4.8 28.8
2017-Dec-13 21:15S 16°30' E 169°47'1 2.3 28.9
2017-Dec-13 21:00S 16°30' E 169°46'1 0.9 28.9
2017-Dec-13 19:45S 16°30' E 169°47'0 0.0 28.9
2017-Dec-13 19:30S 16°30' E 169°47'2 6.9 28.9
2017-Dec-13 19:15S 16°30' E 169°49'0 0.0 28.9
2017-Dec-13 17:45S 16°30' E 169°49'1 1.3 28.9
2017-Dec-13 16:45S 16°29' E 169°50'0 0.0 28.9
2017-Dec-13 16:30S 16°29' E 169°50'2 1.4 28.9
2017-Dec-13 15:00S 16°31' E 169°52'0 0.0 28.9
2017-Dec-13 11:30S 16°31' E 169°52'1 1.5 28.9
2017-Dec-13 10:45S 16°31' E 169°53'0 0.0 28.9
2017-Dec-13 10:00S 16°31' E 169°53'0 0.0 28.9
2017-Dec-13 09:45S 16°31' E 169°53'1 1.7 28.9
2017-Dec-13 09:15S 16°32' E 169°53'0 0.0 28.9
2017-Dec-13 09:00S 16°32' E 169°53'0 0.0 28.9
2017-Dec-13 08:45S 16°32' E 169°53'2 6.9 28.9
2017-Dec-13 08:30S 16°32' E 169°55'0 0.0 28.9
2017-Dec-13 08:15S 16°32' E 169°55'0 0.0 28.9
2017-Dec-13 07:00S 16°32' E 169°55'1 3.3 28.9
2017-Dec-13 06:45S 16°32' E 169°56'1 0.5 28.9
2017-Dec-13 05:30S 16°32' E 169°56'0 0.0 28.9
2017-Dec-13 05:15S 16°32' E 169°56'1 0.4 28.9
2017-Dec-13 03:45S 16°33' E 169°56'3 0.5 28.9
2017-Dec-12 23:00S 16°34' E 169°59'1 1.1 28.6
2017-Dec-12 22:15S 16°35' E 169°59'0 0.0 28.6
2017-Dec-12 20:45S 16°35' E 169°59'0 0.0 28.5
2017-Dec-12 20:30S 16°35' E 169°59'1 3.3 28.4
2017-Dec-12 20:15S 16°35' E 169°59'1 4.6 28.4
2017-Dec-12 20:00S 16°35' E 170°00'0 0.0 28.4
2017-Dec-12 19:45S 16°35' E 170°00'1 0.6 28.4
2017-Dec-12 18:15S 16°35' E 170°01'0 0.0 28.3
2017-Dec-12 18:00S 16°35' E 170°01'2 1.7 28.3
2017-Dec-12 17:00S 16°36' E 170°02'0 0.0 28.3
2017-Dec-12 16:45S 16°36' E 170°02'1 0.7 28.3
2017-Dec-12 15:00S 16°37' E 170°03'1 0.2 28.3
2017-Dec-12 11:15S 16°37' E 170°04'0 0.0 28.4
2017-Dec-12 11:00S 16°37' E 170°04'0 0.0 28.4
2017-Dec-12 10:15S 16°37' E 170°04'0 0.0 28.4
2017-Dec-12 10:00S 16°37' E 170°04'0 0.0 28.4
2017-Dec-12 09:30S 16°37' E 170°04'1 3.3 28.4
2017-Dec-12 09:15S 16°36' E 170°04'0 0.0 28.4
2017-Dec-12 08:30S 16°36' E 170°04'0 0.0 28.4
2017-Dec-12 07:30S 16°36' E 170°04'1 2.3 28.5
2017-Dec-12 07:15S 16°36' E 170°05'0 0.0 28.5
2017-Dec-12 07:00S 16°36' E 170°05'0 0.0 28.5
2017-Dec-12 06:45S 16°36' E 170°05'1 0.6 28.5
2017-Dec-12 05:45S 16°36' E 170°05'0 0.0 28.5
2017-Dec-12 05:30S 16°36' E 170°05'1 0.8 28.5
2017-Dec-12 04:00S 16°36' E 170°07'0 0.0 28.6
2017-Dec-12 03:45S 16°36' E 170°07'5 1.0 28.6
2017-Dec-11 22:45S 16°35' E 170°11'2 6.9 28.5
2017-Dec-11 22:30S 16°35' E 170°13'0 0.0 28.5
2017-Dec-11 21:45S 16°35' E 170°13'0 0.0 28.5
2017-Dec-11 21:00S 16°35' E 170°13'2 6.9 28.5
2017-Dec-11 20:45S 16°35' E 170°15'1 1.1 28.5
2017-Dec-11 20:00S 16°35' E 170°16'0 0.0 28.4
2017-Dec-11 19:00S 16°35' E 170°16'0 0.0 28.4
2017-Dec-11 18:45S 16°35' E 170°16'0 0.0 28.4
2017-Dec-11 18:30S 16°35' E 170°16'1 3.3 28.4
2017-Dec-11 18:15S 16°36' E 170°16'1 0.6 28.4
2017-Dec-11 17:15S 16°36' E 170°17'1 3.3 28.4
2017-Dec-11 17:00S 16°37' E 170°17'2 1.4 28.4
2017-Dec-11 15:30S 16°38' E 170°19'0 0.0 28.4
2017-Dec-11 15:15S 16°38' E 170°19'0 0.0 28.4
2017-Dec-11 11:30S 16°38' E 170°19'0 0.0 28.4
2017-Dec-11 11:15S 16°38' E 170°19'1 1.1 28.4
2017-Dec-11 10:30S 16°38' E 170°20'0 0.0 28.4
2017-Dec-11 09:45S 16°38' E 170°20'1 0.8 28.5
2017-Dec-11 09:00S 16°38' E 170°20'1 2.3 28.5
2017-Dec-11 08:45S 16°38' E 170°21'1 0.8 28.5
2017-Dec-11 08:00S 16°39' E 170°21'0 0.0 28.6
2017-Dec-11 07:45S 16°39' E 170°21'0 0.0 28.6
2017-Dec-11 07:15S 16°39' E 170°21'1 3.3 28.6
2017-Dec-11 07:00S 16°40' E 170°22'0 0.0 28.7
2017-Dec-11 06:15S 16°40' E 170°22'1 1.2 28.7
2017-Dec-11 05:45S 16°40' E 170°22'2 1.5 28.7
2017-Dec-11 04:15S 16°40' E 170°24'2 9.2 28.8
2017-Dec-11 04:00S 16°40' E 170°22'4 0.8 28.8
2017-Dec-10 23:00S 16°40' E 170°26'0 0.0 28.1
2017-Dec-10 22:45S 16°40' E 170°26'1 0.8 28.1
2017-Dec-10 22:00S 16°40' E 170°25'2 2.4 28.0
2017-Dec-10 21:15S 16°40' E 170°27'0 0.0 28.0
2017-Dec-10 20:15S 16°40' E 170°27'1 1.1 27.9
2017-Dec-10 19:30S 16°40' E 170°28'1 2.3 27.9
2017-Dec-10 19:15S 16°40' E 170°28'0 0.0 27.9
2017-Dec-10 19:00S 16°40' E 170°28'1 2.3 27.9
2017-Dec-10 18:30S 16°40' E 170°29'1 0.6 27.9
2017-Dec-10 17:30S 16°40' E 170°29'2 6.9 27.9
2017-Dec-10 17:15S 16°40' E 170°31'1 0.4 28.0
2017-Dec-10 15:45S 16°40' E 170°31'519.8 28.0
2017-Dec-10 15:30S 16°41' E 170°35'0 0.0 28.0
2017-Dec-10 11:45S 16°41' E 170°35'2 2.4 28.1
2017-Dec-10 11:00S 16°41' E 170°37'2 7.3 28.1
2017-Dec-10 10:45S 16°41' E 170°35'2 3.7 28.1
2017-Dec-10 10:15S 16°42' E 170°37'1 4.8 28.1
2017-Dec-10 10:00S 16°41' E 170°37'1 1.6 28.1
2017-Dec-10 09:15S 16°42' E 170°37'0 0.0 28.1
2017-Dec-10 09:00S 16°42' E 170°37'0 0.0 28.1
2017-Dec-10 08:45S 16°42' E 170°37'1 2.6 28.1
2017-Dec-10 08:15S 16°43' E 170°38'0 0.0 28.1
2017-Dec-10 07:30S 16°43' E 170°38'1 2.3 28.2
2017-Dec-10 07:15S 16°43' E 170°39'0 0.0 28.2
2017-Dec-10 06:45S 16°43' E 170°39'2 1.5 28.2
2017-Dec-10 05:15S 16°43' E 170°41'1 2.3 28.3
2017-Dec-10 05:00S 16°43' E 170°41'713.3 28.3
2017-Dec-10 04:30S 16°47' E 170°46'0 0.0 28.3
2017-Dec-10 04:15S 16°47' E 170°46'1 0.2 28.3
2017-Dec-09 23:15S 16°48' E 170°46'1 0.4 28.1
2017-Dec-09 21:45S 16°49' E 170°46'1 2.4 28.0
2017-Dec-09 21:30S 16°48' E 170°46'1 0.8 28.0
2017-Dec-09 20:45S 16°49' E 170°46'0 0.0 28.0
2017-Dec-09 20:30S 16°49' E 170°46'1 2.4 27.9
2017-Dec-09 20:15S 16°49' E 170°46'0 0.0 27.9
2017-Dec-09 20:00S 16°49' E 170°46'1 4.6 27.9
2017-Dec-09 19:45S 16°49' E 170°47'2 1.8 27.9
2017-Dec-09 18:45S 16°50' E 170°49'0 0.0 27.9
2017-Dec-09 18:30S 16°50' E 170°49'1 5.2 27.9
2017-Dec-09 18:15S 16°49' E 170°48'0 0.0 27.9
2017-Dec-09 18:00S 16°49' E 170°48'1 2.6 27.9
2017-Dec-09 17:30S 16°50' E 170°49'2 0.9 27.9
2017-Dec-09 15:45S 16°51' E 170°50'1 0.1 27.9
2017-Dec-09 11:15S 16°51' E 170°51'0 0.0 28.1
2017-Dec-09 11:00S 16°51' E 170°51'1 1.2 28.1
2017-Dec-09 10:30S 16°52' E 170°51'0 0.0 28.1
2017-Dec-09 10:15S 16°52' E 170°51'1 0.8 28.1
2017-Dec-09 09:30S 16°52' E 170°52'0 0.0 28.1
2017-Dec-09 09:15S 16°52' E 170°52'0 0.0 28.1
2017-Dec-09 09:00S 16°52' E 170°52'1 4.6 28.1
2017-Dec-09 08:45S 16°52' E 170°53'1 0.9 28.1
2017-Dec-09 07:30S 16°52' E 170°54'0 0.0 28.2
2017-Dec-09 07:15S 16°52' E 170°54'0 0.0 28.2
2017-Dec-09 05:45S 16°52' E 170°54'1 3.3 28.2
2017-Dec-09 05:30S 16°52' E 170°55'1 0.8 28.2
2017-Dec-09 04:45S 16°52' E 170°55'1 4.6 28.2
2017-Dec-09 04:30S 16°52' E 170°56'0 0.0 28.3
2017-Dec-09 03:00S 16°52' E 170°56'0 0.0 28.3
2017-Dec-09 02:45S 16°52' E 170°56'4 1.0 28.3
2017-Dec-08 22:45S 16°52' E 171°00'1 3.3 28.1
2017-Dec-08 22:30S 16°52' E 171°01'2 3.6 28.0
2017-Dec-08 22:00S 16°53' E 171°02'2 7.3 28.0
2017-Dec-08 21:45S 16°52' E 171°01'2 3.4 27.9
2017-Dec-08 21:15S 16°52' E 171°02'0 0.0 27.9
2017-Dec-08 21:00S 16°52' E 171°02'1 2.4 27.9
2017-Dec-08 20:45S 16°53' E 171°02'1 2.3 27.9
2017-Dec-08 20:30S 16°53' E 171°02'2 9.5 27.9
2017-Dec-08 20:15S 16°53' E 171°04'0 0.0 27.9
2017-Dec-08 19:00S 16°53' E 171°04'1 2.3 27.9
2017-Dec-08 18:45S 16°53' E 171°05'310.4 27.9
2017-Dec-08 18:30S 16°55' E 171°07'4 1.5 27.9
2017-Dec-08 16:00S 16°57' E 171°10'415.0 28.1
2017-Dec-08 15:45S 16°55' E 171°07'4 2.5 28.1
2017-Dec-08 14:15S 16°57' E 171°10'1 0.4 28.3
2017-Dec-08 11:30S 16°57' E 171°11'1 1.8 28.5
2017-Dec-08 10:45S 16°58' E 171°12'0 0.0 28.5
2017-Dec-08 10:00S 16°58' E 171°12'0 0.0 28.5
2017-Dec-08 09:45S 16°58' E 171°12'0 0.0 28.5
2017-Dec-08 09:30S 16°58' E 171°12'1 5.3 28.5
2017-Dec-08 09:15S 16°59' E 171°13'0 0.0 28.5
2017-Dec-08 09:00S 16°59' E 171°13'2 1.5 28.6
2017-Dec-08 07:45S 17°01' E 171°13'0 0.0 28.6
2017-Dec-08 07:30S 17°01' E 171°13'0 0.0 28.6
2017-Dec-08 06:15S 17°01' E 171°13'0 0.0 28.6
2017-Dec-08 06:00S 17°01' E 171°13'1 5.3 28.6
2017-Dec-08 05:45S 17°02' E 171°13'1 0.8 28.6
2017-Dec-08 04:45S 17°03' E 171°12'0 0.0 28.5
2017-Dec-08 04:30S 17°03' E 171°12'1 0.4 28.6
2017-Dec-08 03:00S 17°04' E 171°12'2 0.4 29.4
2017-Dec-07 23:00S 17°05' E 171°11'1 0.8 28.1
2017-Dec-07 22:15S 17°05' E 171°10'1 0.8 27.9
2017-Dec-07 20:45S 17°06' E 171°10'0 0.0 27.8
2017-Dec-07 20:30S 17°06' E 171°10'0 0.0 27.7
2017-Dec-07 19:15S 17°06' E 171°10'1 4.8 27.7
2017-Dec-07 19:00S 17°07' E 171°10'0 0.0 27.7
2017-Dec-07 17:30S 17°07' E 171°10'0 0.0 27.7
2017-Dec-07 17:15S 17°07' E 171°10'2 2.1 27.7
2017-Dec-07 16:15S 17°09' E 171°09'1 5.3 27.7
2017-Dec-07 16:00S 17°08' E 171°10'1 0.9 27.7
2017-Dec-07 14:30S 17°09' E 171°09'2 0.5 27.8
2017-Dec-07 11:15S 17°09' E 171°07'0 0.0 27.8
2017-Dec-07 11:00S 17°09' E 171°07'0 0.0 27.8
2017-Dec-07 10:15S 17°09' E 171°07'0 0.0 27.8
2017-Dec-07 10:00S 17°09' E 171°07'0 0.0 27.8
2017-Dec-07 09:30S 17°09' E 171°07'1 0.8 27.8
2017-Dec-07 08:30S 17°08' E 171°07'1 1.2 27.8
2017-Dec-07 08:00S 17°08' E 171°07'0 0.0 27.9
2017-Dec-07 07:45S 17°08' E 171°07'1 0.6 27.9
2017-Dec-07 06:45S 17°08' E 171°07'1 2.4 27.9
2017-Dec-07 06:30S 17°08' E 171°07'   27.9
Track history (hours):
 
Tides and Currents Weather Stations Pressure Air Temp Water Temp Dewpoint Dewpoint Depression Visibility Wind Speed Wind Dir Waves Ship Positions

Yue Yang Xi 32521

Last reported at 2017-Dec-17 06:30 UTC. Time now 2017-Dec-17 08:24 UTC.
Position S 16°42' E 168°46'.

Length 38 m.

Type: Fishing. MMSI: 412475823.

Water temperature 29.1 ° C

Date/timePositionNaut miles runAvg speedWind from/ knotsBaromVisibWave heightAir tempDewpointWater temp
2017-Dec-17 06:30S 16°42' E 168°46'0 0.0 29.1
2017-Dec-17 06:15S 16°42' E 168°46'2 1.3 29.1
2017-Dec-17 04:45S 16°40' E 168°46'0 0.0 29.1
2017-Dec-17 04:30S 16°40' E 168°46'4 2.5 29.0
2017-Dec-17 03:00S 16°38' E 168°49'0 0.0 28.9
2017-Dec-16 23:15S 16°38' E 168°49'0 0.0 29.0
2017-Dec-16 22:45S 16°38' E 168°49'311.7 29.0
2017-Dec-16 22:30S 16°36' E 168°52'1 1.1 29.0
2017-Dec-16 21:45S 16°37' E 168°51'1 1.1 29.0
2017-Dec-16 21:00S 16°36' E 168°52'310.4 29.0
2017-Dec-16 20:45S 16°35' E 168°54'0 0.0 29.0
2017-Dec-16 20:30S 16°35' E 168°54'0 0.0 29.0
2017-Dec-16 19:30S 16°35' E 168°54'1 1.2 29.0
2017-Dec-16 19:00S 16°35' E 168°53'2 9.5 29.0
2017-Dec-16 18:45S 16°34' E 168°56'0 0.0 29.0
2017-Dec-16 18:30S 16°34' E 168°56'2 3.2 29.0
2017-Dec-16 17:45S 16°34' E 168°58'7 4.6 29.1
2017-Dec-16 16:15S 16°33' E 169°05'0 0.0 29.1
2017-Dec-16 16:00S 16°33' E 169°05'0 0.0 29.1
2017-Dec-16 14:30S 16°33' E 169°05'0 0.0 29.1
2017-Dec-16 11:30S 16°33' E 169°05'0 0.0 29.1
2017-Dec-16 11:15S 16°33' E 169°05'1 0.8 29.1
2017-Dec-16 10:30S 16°33' E 169°06'0 0.0 29.1
2017-Dec-16 10:15S 16°33' E 169°06'0 0.0 29.1
2017-Dec-16 09:45S 16°33' E 169°06'1 2.3 29.1
2017-Dec-16 09:30S 16°33' E 169°07'1 1.7 29.1
2017-Dec-16 08:45S 16°32' E 169°08'0 0.0 29.1
2017-Dec-16 07:45S 16°32' E 169°08'1 4.6 29.1
2017-Dec-16 07:30S 16°32' E 169°09'0 0.0 29.1
2017-Dec-16 07:15S 16°32' E 169°09'0 0.0 29.1
2017-Dec-16 07:00S 16°32' E 169°09'1 0.9 29.1
2017-Dec-16 05:45S 16°32' E 169°10'1 4.6 29.1
2017-Dec-16 05:30S 16°32' E 169°11'0 0.0 29.1
2017-Dec-16 05:15S 16°32' E 169°11'0 0.0 29.1
2017-Dec-16 05:00S 16°32' E 169°11'2 7.3 29.2
2017-Dec-16 04:45S 16°33' E 169°13'0 0.0 29.2
2017-Dec-16 03:15S 16°33' E 169°13'0 0.0 29.1
2017-Dec-16 03:00S 16°33' E 169°13'4 0.9 29.2
2017-Dec-15 23:00S 16°32' E 169°17'1 4.6 29.0
2017-Dec-15 22:45S 16°32' E 169°18'1 1.5 29.0
2017-Dec-15 22:00S 16°32' E 169°17'1 4.6 28.9
2017-Dec-15 21:45S 16°32' E 169°18'0 0.0 28.9
2017-Dec-15 21:15S 16°32' E 169°18'0 0.0 28.9
2017-Dec-15 21:00S 16°32' E 169°18'1 5.2 28.9
2017-Dec-15 20:45S 16°33' E 169°19'0 0.0 28.9
2017-Dec-15 20:15S 16°33' E 169°19'1 2.3 28.9
2017-Dec-15 20:00S 16°33' E 169°20'0 0.0 28.9
2017-Dec-15 19:45S 16°33' E 169°20'0 0.0 28.9
2017-Dec-15 19:15S 16°33' E 169°20'0 0.0 28.9
2017-Dec-15 19:00S 16°33' E 169°20'2 2.4 28.9
2017-Dec-15 18:15S 16°34' E 169°22'0 0.0 28.9
2017-Dec-15 17:15S 16°34' E 169°22'1 1.7 28.9
2017-Dec-15 16:30S 16°33' E 169°23'0 0.0 28.9
2017-Dec-15 16:15S 16°33' E 169°23'0 0.0 28.9
2017-Dec-15 14:45S 16°33' E 169°23'310.4 28.9
2017-Dec-15 14:30S 16°34' E 169°25'0 0.0 28.9
2017-Dec-15 11:45S 16°34' E 169°25'1 0.8 28.9
2017-Dec-15 11:00S 16°34' E 169°26'0 0.0 28.9
2017-Dec-15 10:45S 16°34' E 169°26'0 0.0 28.9
2017-Dec-15 10:15S 16°34' E 169°26'0 0.0 28.9
2017-Dec-15 10:00S 16°34' E 169°26'1 2.3 28.9
2017-Dec-15 09:45S 16°34' E 169°25'0 0.0 28.9
2017-Dec-15 09:30S 16°34' E 169°25'0 0.0 28.9
2017-Dec-15 09:15S 16°34' E 169°25'1 5.2 28.9
2017-Dec-15 09:00S 16°35' E 169°26'1 0.6 28.9
2017-Dec-15 08:00S 16°35' E 169°26'1 2.3 28.9
2017-Dec-15 07:45S 16°35' E 169°25'1 3.3 28.9
2017-Dec-15 07:30S 16°35' E 169°26'0 0.0 28.9
2017-Dec-15 06:15S 16°35' E 169°26'0 0.0 28.9
2017-Dec-15 06:00S 16°35' E 169°26'0 0.0 28.9
2017-Dec-15 05:45S 16°35' E 169°26'1 2.3 28.9
2017-Dec-15 05:15S 16°35' E 169°27'0 0.0 28.9
2017-Dec-15 05:00S 16°35' E 169°27'1 0.6 28.9
2017-Dec-15 03:30S 16°35' E 169°28'414.6 28.9
2017-Dec-15 03:15S 16°34' E 169°31'1 0.2 28.9
2017-Dec-14 23:15S 16°34' E 169°32'1 0.4 28.8
2017-Dec-14 21:45S 16°34' E 169°32'0 0.0 28.8
2017-Dec-14 21:30S 16°34' E 169°32'0 0.0 28.8
2017-Dec-14 21:15S 16°34' E 169°32'1 2.3 28.8
2017-Dec-14 21:00S 16°34' E 169°32'0 0.0 28.8
2017-Dec-14 20:45S 16°34' E 169°32'0 0.0 28.8
2017-Dec-14 20:30S 16°34' E 169°32'1 1.3 28.8
2017-Dec-14 19:30S 16°33' E 169°34'0 0.0 28.8
2017-Dec-14 19:15S 16°33' E 169°34'1 4.6 28.8
2017-Dec-14 19:00S 16°33' E 169°35'0 0.0 28.8
2017-Dec-14 18:45S 16°33' E 169°35'1 1.2 28.8
2017-Dec-14 17:45S 16°33' E 169°34'1 2.3 28.8
2017-Dec-14 17:15S 16°33' E 169°35'0 0.0 28.8
2017-Dec-14 17:00S 16°33' E 169°35'1 2.6 28.8
2017-Dec-14 16:30S 16°32' E 169°36'0 0.0 28.8
2017-Dec-14 15:00S 16°32' E 169°36'1 2.4 28.8
2017-Dec-14 14:45S 16°33' E 169°36'2 0.7 28.8
2017-Dec-14 11:15S 16°32' E 169°38'1 2.4
2017-Dec-14 11:00S 16°33' E 169°38'1 1.2 28.7
2017-Dec-14 10:30S 16°32' E 169°38'1 3.3 28.7
2017-Dec-14 10:15S 16°33' E 169°39'2 2.3 28.7
2017-Dec-14 09:30S 16°33' E 169°41'0 0.0 28.7
2017-Dec-14 08:45S 16°33' E 169°41'0 0.0 28.7
2017-Dec-14 08:15S 16°33' E 169°41'0 0.0 28.8
2017-Dec-14 08:00S 16°33' E 169°41'1 0.6 28.8
2017-Dec-14 06:30S 16°34' E 169°41'0 0.0 28.8
2017-Dec-14 06:15S 16°34' E 169°41'2 1.7 28.8
2017-Dec-14 05:15S 16°32' E 169°43'0 0.0 28.8
2017-Dec-14 03:45S 16°32' E 169°43'0 0.0 28.8
2017-Dec-14 03:30S 16°32' E 169°43'2 0.5 28.9
2017-Dec-13 22:45S 16°31' E 169°44'0 0.0 28.8
2017-Dec-13 22:30S 16°31' E 169°44'2 4.8 28.8
2017-Dec-13 22:00S 16°30' E 169°47'2 9.5 28.8
2017-Dec-13 21:45S 16°31' E 169°44'2 4.8 28.8
2017-Dec-13 21:15S 16°30' E 169°47'1 2.3 28.9
2017-Dec-13 21:00S 16°30' E 169°46'1 0.9 28.9
2017-Dec-13 19:45S 16°30' E 169°47'0 0.0 28.9
2017-Dec-13 19:30S 16°30' E 169°47'2 6.9 28.9
2017-Dec-13 19:15S 16°30' E 169°49'0 0.0 28.9
2017-Dec-13 17:45S 16°30' E 169°49'1 1.3 28.9
2017-Dec-13 16:45S 16°29' E 169°50'0 0.0 28.9
2017-Dec-13 16:30S 16°29' E 169°50'2 1.4 28.9
2017-Dec-13 15:00S 16°31' E 169°52'0 0.0 28.9
2017-Dec-13 11:30S 16°31' E 169°52'1 1.5 28.9
2017-Dec-13 10:45S 16°31' E 169°53'0 0.0 28.9
2017-Dec-13 10:00S 16°31' E 169°53'0 0.0 28.9
2017-Dec-13 09:45S 16°31' E 169°53'1 1.7 28.9
2017-Dec-13 09:15S 16°32' E 169°53'0 0.0 28.9
2017-Dec-13 09:00S 16°32' E 169°53'0 0.0 28.9
2017-Dec-13 08:45S 16°32' E 169°53'2 6.9 28.9
2017-Dec-13 08:30S 16°32' E 169°55'0 0.0 28.9
2017-Dec-13 08:15S 16°32' E 169°55'0 0.0 28.9
2017-Dec-13 07:00S 16°32' E 169°55'1 3.3 28.9
2017-Dec-13 06:45S 16°32' E 169°56'1 0.5 28.9
2017-Dec-13 05:30S 16°32' E 169°56'0 0.0 28.9
2017-Dec-13 05:15S 16°32' E 169°56'1 0.4 28.9
2017-Dec-13 03:45S 16°33' E 169°56'3 0.5 28.9
2017-Dec-12 23:00S 16°34' E 169°59'1 1.1 28.6
2017-Dec-12 22:15S 16°35' E 169°59'0 0.0 28.6
2017-Dec-12 20:45S 16°35' E 169°59'0 0.0 28.5
2017-Dec-12 20:30S 16°35' E 169°59'1 3.3 28.4
2017-Dec-12 20:15S 16°35' E 169°59'1 4.6 28.4
2017-Dec-12 20:00S 16°35' E 170°00'0 0.0 28.4
2017-Dec-12 19:45S 16°35' E 170°00'1 0.6 28.4
2017-Dec-12 18:15S 16°35' E 170°01'0 0.0 28.3
2017-Dec-12 18:00S 16°35' E 170°01'2 1.7 28.3
2017-Dec-12 17:00S 16°36' E 170°02'0 0.0 28.3
2017-Dec-12 16:45S 16°36' E 170°02'1 0.7 28.3
2017-Dec-12 15:00S 16°37' E 170°03'1 0.2 28.3
2017-Dec-12 11:15S 16°37' E 170°04'0 0.0 28.4
2017-Dec-12 11:00S 16°37' E 170°04'0 0.0 28.4
2017-Dec-12 10:15S 16°37' E 170°04'0 0.0 28.4
2017-Dec-12 10:00S 16°37' E 170°04'0 0.0 28.4
2017-Dec-12 09:30S 16°37' E 170°04'1 3.3 28.4
2017-Dec-12 09:15S 16°36' E 170°04'0 0.0 28.4
2017-Dec-12 08:30S 16°36' E 170°04'0 0.0 28.4
2017-Dec-12 07:30S 16°36' E 170°04'1 2.3 28.5
2017-Dec-12 07:15S 16°36' E 170°05'0 0.0 28.5
2017-Dec-12 07:00S 16°36' E 170°05'0 0.0 28.5
2017-Dec-12 06:45S 16°36' E 170°05'1 0.6 28.5
2017-Dec-12 05:45S 16°36' E 170°05'0 0.0 28.5
2017-Dec-12 05:30S 16°36' E 170°05'1 0.8 28.5
2017-Dec-12 04:00S 16°36' E 170°07'0 0.0 28.6
2017-Dec-12 03:45S 16°36' E 170°07'5 1.0 28.6
2017-Dec-11 22:45S 16°35' E 170°11'2 6.9 28.5
2017-Dec-11 22:30S 16°35' E 170°13'0 0.0 28.5
2017-Dec-11 21:45S 16°35' E 170°13'0 0.0 28.5
2017-Dec-11 21:00S 16°35' E 170°13'2 6.9 28.5
2017-Dec-11 20:45S 16°35' E 170°15'1 1.1 28.5
2017-Dec-11 20:00S 16°35' E 170°16'0 0.0 28.4
2017-Dec-11 19:00S 16°35' E 170°16'0 0.0 28.4
2017-Dec-11 18:45S 16°35' E 170°16'0 0.0 28.4
2017-Dec-11 18:30S 16°35' E 170°16'1 3.3 28.4
2017-Dec-11 18:15S 16°36' E 170°16'1 0.6 28.4
2017-Dec-11 17:15S 16°36' E 170°17'1 3.3 28.4
2017-Dec-11 17:00S 16°37' E 170°17'2 1.4 28.4
2017-Dec-11 15:30S 16°38' E 170°19'0 0.0 28.4
2017-Dec-11 15:15S 16°38' E 170°19'0 0.0 28.4
2017-Dec-11 11:30S 16°38' E 170°19'0 0.0 28.4
2017-Dec-11 11:15S 16°38' E 170°19'1 1.1 28.4
2017-Dec-11 10:30S 16°38' E 170°20'0 0.0 28.4
2017-Dec-11 09:45S 16°38' E 170°20'1 0.8 28.5
2017-Dec-11 09:00S 16°38' E 170°20'1 2.3 28.5
2017-Dec-11 08:45S 16°38' E 170°21'1 0.8 28.5
2017-Dec-11 08:00S 16°39' E 170°21'0 0.0 28.6
2017-Dec-11 07:45S 16°39' E 170°21'0 0.0 28.6
2017-Dec-11 07:15S 16°39' E 170°21'1 3.3 28.6
2017-Dec-11 07:00S 16°40' E 170°22'0 0.0 28.7
2017-Dec-11 06:15S 16°40' E 170°22'1 1.2 28.7
2017-Dec-11 05:45S 16°40' E 170°22'2 1.5 28.7
2017-Dec-11 04:15S 16°40' E 170°24'2 9.2 28.8
2017-Dec-11 04:00S 16°40' E 170°22'4 0.8 28.8
2017-Dec-10 23:00S 16°40' E 170°26'0 0.0 28.1
2017-Dec-10 22:45S 16°40' E 170°26'1 0.8 28.1
2017-Dec-10 22:00S 16°40' E 170°25'2 2.4 28.0
2017-Dec-10 21:15S 16°40' E 170°27'0 0.0 28.0
2017-Dec-10 20:15S 16°40' E 170°27'1 1.1 27.9
2017-Dec-10 19:30S 16°40' E 170°28'1 2.3 27.9
2017-Dec-10 19:15S 16°40' E 170°28'0 0.0 27.9
2017-Dec-10 19:00S 16°40' E 170°28'1 2.3 27.9
2017-Dec-10 18:30S 16°40' E 170°29'1 0.6 27.9
2017-Dec-10 17:30S 16°40' E 170°29'2 6.9 27.9
2017-Dec-10 17:15S 16°40' E 170°31'1 0.4 28.0
2017-Dec-10 15:45S 16°40' E 170°31'519.8 28.0
2017-Dec-10 15:30S 16°41' E 170°35'0 0.0 28.0
2017-Dec-10 11:45S 16°41' E 170°35'2 2.4 28.1
2017-Dec-10 11:00S 16°41' E 170°37'2 7.3 28.1
2017-Dec-10 10:45S 16°41' E 170°35'2 3.7 28.1
2017-Dec-10 10:15S 16°42' E 170°37'1 4.8 28.1
2017-Dec-10 10:00S 16°41' E 170°37'1 1.6 28.1
2017-Dec-10 09:15S 16°42' E 170°37'0 0.0 28.1
2017-Dec-10 09:00S 16°42' E 170°37'0 0.0 28.1
2017-Dec-10 08:45S 16°42' E 170°37'1 2.6 28.1
2017-Dec-10 08:15S 16°43' E 170°38'0 0.0 28.1
2017-Dec-10 07:30S 16°43' E 170°38'1 2.3 28.2
2017-Dec-10 07:15S 16°43' E 170°39'0 0.0 28.2
2017-Dec-10 06:45S 16°43' E 170°39'2 1.5 28.2
2017-Dec-10 05:15S 16°43' E 170°41'1 2.3 28.3
2017-Dec-10 05:00S 16°43' E 170°41'713.3 28.3
2017-Dec-10 04:30S 16°47' E 170°46'0 0.0 28.3
2017-Dec-10 04:15S 16°47' E 170°46'1 0.2 28.3
2017-Dec-09 23:15S 16°48' E 170°46'1 0.4 28.1
2017-Dec-09 21:45S 16°49' E 170°46'1 2.4 28.0
2017-Dec-09 21:30S 16°48' E 170°46'1 0.8 28.0
2017-Dec-09 20:45S 16°49' E 170°46'0 0.0 28.0
2017-Dec-09 20:30S 16°49' E 170°46'1 2.4 27.9
2017-Dec-09 20:15S 16°49' E 170°46'0 0.0 27.9
2017-Dec-09 20:00S 16°49' E 170°46'1 4.6 27.9
2017-Dec-09 19:45S 16°49' E 170°47'2 1.8 27.9
2017-Dec-09 18:45S 16°50' E 170°49'0 0.0 27.9
2017-Dec-09 18:30S 16°50' E 170°49'1 5.2 27.9
2017-Dec-09 18:15S 16°49' E 170°48'0 0.0 27.9
2017-Dec-09 18:00S 16°49' E 170°48'1 2.6 27.9
2017-Dec-09 17:30S 16°50' E 170°49'2 0.9 27.9
2017-Dec-09 15:45S 16°51' E 170°50'1 0.1 27.9
2017-Dec-09 11:15S 16°51' E 170°51'0 0.0 28.1
2017-Dec-09 11:00S 16°51' E 170°51'1 1.2 28.1
2017-Dec-09 10:30S 16°52' E 170°51'0 0.0 28.1
2017-Dec-09 10:15S 16°52' E 170°51'1 0.8 28.1
2017-Dec-09 09:30S 16°52' E 170°52'0 0.0 28.1
2017-Dec-09 09:15S 16°52' E 170°52'0 0.0 28.1
2017-Dec-09 09:00S 16°52' E 170°52'1 4.6 28.1
2017-Dec-09 08:45S 16°52' E 170°53'1 0.9 28.1
2017-Dec-09 07:30S 16°52' E 170°54'0 0.0 28.2
2017-Dec-09 07:15S 16°52' E 170°54'0 0.0 28.2
2017-Dec-09 05:45S 16°52' E 170°54'1 3.3 28.2
2017-Dec-09 05:30S 16°52' E 170°55'1 0.8 28.2
2017-Dec-09 04:45S 16°52' E 170°55'1 4.6 28.2
2017-Dec-09 04:30S 16°52' E 170°56'0 0.0 28.3
2017-Dec-09 03:00S 16°52' E 170°56'0 0.0 28.3
2017-Dec-09 02:45S 16°52' E 170°56'4 1.0 28.3
2017-Dec-08 22:45S 16°52' E 171°00'1 3.3 28.1
2017-Dec-08 22:30S 16°52' E 171°01'2 3.6 28.0
2017-Dec-08 22:00S 16°53' E 171°02'2 7.3 28.0
2017-Dec-08 21:45S 16°52' E 171°01'2 3.4 27.9
2017-Dec-08 21:15S 16°52' E 171°02'0 0.0 27.9
2017-Dec-08 21:00S 16°52' E 171°02'1 2.4 27.9
2017-Dec-08 20:45S 16°53' E 171°02'1 2.3 27.9
2017-Dec-08 20:30S 16°53' E 171°02'2 9.5 27.9
2017-Dec-08 20:15S 16°53' E 171°04'0 0.0 27.9
2017-Dec-08 19:00S 16°53' E 171°04'1 2.3 27.9
2017-Dec-08 18:45S 16°53' E 171°05'310.4 27.9
2017-Dec-08 18:30S 16°55' E 171°07'4 1.5 27.9
2017-Dec-08 16:00S 16°57' E 171°10'415.0 28.1
2017-Dec-08 15:45S 16°55' E 171°07'4 2.5 28.1
2017-Dec-08 14:15S 16°57' E 171°10'1 0.4 28.3
2017-Dec-08 11:30S 16°57' E 171°11'1 1.8 28.5
2017-Dec-08 10:45S 16°58' E 171°12'0 0.0 28.5
2017-Dec-08 10:00S 16°58' E 171°12'0 0.0 28.5
2017-Dec-08 09:45S 16°58' E 171°12'0 0.0 28.5
2017-Dec-08 09:30S 16°58' E 171°12'1 5.3 28.5
2017-Dec-08 09:15S 16°59' E 171°13'0 0.0 28.5
2017-Dec-08 09:00S 16°59' E 171°13'2 1.5 28.6
2017-Dec-08 07:45S 17°01' E 171°13'0 0.0 28.6
2017-Dec-08 07:30S 17°01' E 171°13'0 0.0 28.6
2017-Dec-08 06:15S 17°01' E 171°13'0 0.0 28.6
2017-Dec-08 06:00S 17°01' E 171°13'1 5.3 28.6
2017-Dec-08 05:45S 17°02' E 171°13'1 0.8 28.6
2017-Dec-08 04:45S 17°03' E 171°12'0 0.0 28.5
2017-Dec-08 04:30S 17°03' E 171°12'1 0.4 28.6
2017-Dec-08 03:00S 17°04' E 171°12'2 0.4 29.4
2017-Dec-07 23:00S 17°05' E 171°11'1 0.8 28.1
2017-Dec-07 22:15S 17°05' E 171°10'1 0.8 27.9
2017-Dec-07 20:45S 17°06' E 171°10'0 0.0 27.8
2017-Dec-07 20:30S 17°06' E 171°10'0 0.0 27.7
2017-Dec-07 19:15S 17°06' E 171°10'1 4.8 27.7
2017-Dec-07 19:00S 17°07' E 171°10'0 0.0 27.7
2017-Dec-07 17:30S 17°07' E 171°10'0 0.0 27.7
2017-Dec-07 17:15S 17°07' E 171°10'2 2.1 27.7
2017-Dec-07 16:15S 17°09' E 171°09'1 5.3 27.7
2017-Dec-07 16:00S 17°08' E 171°10'1 0.9 27.7
2017-Dec-07 14:30S 17°09' E 171°09'2 0.5 27.8
2017-Dec-07 11:15S 17°09' E 171°07'0 0.0 27.8
2017-Dec-07 11:00S 17°09' E 171°07'0 0.0 27.8
2017-Dec-07 10:15S 17°09' E 171°07'0 0.0 27.8
2017-Dec-07 10:00S 17°09' E 171°07'0 0.0 27.8
2017-Dec-07 09:30S 17°09' E 171°07'1 0.8 27.8
2017-Dec-07 08:30S 17°08' E 171°07'1 1.2 27.8
2017-Dec-07 08:00S 17°08' E 171°07'0 0.0 27.9
2017-Dec-07 07:45S 17°08' E 171°07'1 0.6 27.9
2017-Dec-07 06:45S 17°08' E 171°07'1 2.4 27.9
2017-Dec-07 06:30S 17°08' E 171°07'   27.9

Dump ship's entire track history